• Join FlightAware (Why Join?)
  • Login
  • US Flag 
02:50AM EDT


 

Airport Tracker/Info


-or-


 

Live Flight TrackerFlight Track Log ✈ WAV761 ✈ 19-Jun-2014 ✈ PATA / TAL - PAFA / FAI

Flight Track Log - Related Links

Times and Time Zones

All times are in EDT time to prevent confusion due to time zone crossing. See the WAV761 flight status page for this flight to view local times or setup timezone preferences in your user account.

Time Position Orientation Groundspeed Altitude Reporting Facility
EDT Latitude Longitude Course Direction KTS MPH feet Rate Location/Type
10:26PM 65.1500 -151.8333 100° East 140 161 2,600  Level Anchorage Center
10:27PM 65.1333 -151.7500 115° Southeast 130 150 3,300 720 Climbing Anchorage Center
10:28PM 65.1197 -151.4711 97° East  Level FlightAware Approximate
10:28PM 65.1333 -151.6500 90° East 130 150 4,100  Level Anchorage Center
10:29PM 65.1129 -151.3659 100° East  Level FlightAware Approximate
10:29PM 65.1167 -151.5667 115° Southeast 130 150 4,800  Level Anchorage Center
10:30PM 65.1051 -151.2611 100° East  Level FlightAware Approximate
10:30PM 65.1167 -151.4833 90° East 120 138 5,600  Level Anchorage Center
10:31PM 65.0972 -151.1564 100° East  Level FlightAware Approximate
10:31PM 65.1167 -151.4000 90° East 130 150 6,200  Level Anchorage Center
10:32PM 65.1000 -151.3167 115° Southeast 130 150 7,000 360 Climbing Anchorage Center
10:33PM 65.1000 -151.2333 90° East 150 173 7,000  Level Anchorage Center
10:34PM 65.0833 -151.1167 109° East 170 196 7,000  Level Anchorage Center
10:35PM 65.0833 -151.0167 90° East 170 196 7,000  Level Anchorage Center
10:36PM 65.0667 -150.9000 109° East 170 196 7,000  Level Anchorage Center
10:37PM 65.0667 -150.7833 90° East 170 196 7,000  Level Anchorage Center
10:38PM 65.0500 -150.6833 112° Southeast 170 196 7,000  Level Anchorage Center
10:39PM 65.0500 -150.5833 90° East 160 184 7,000  Level Anchorage Center
10:40PM 65.0333 -150.4833 112° Southeast 160 184 7,000  Level Anchorage Center
10:41PM 65.0333 -150.3667 90° East 160 184 7,000  Level Anchorage Center
10:42PM 65.0167 -150.2667 111° Southeast 160 184 7,000  Level Anchorage Center
10:43PM 65.0167 -150.1667 90° East 160 184 7,000  Level Anchorage Center
10:44PM 65.0000 -150.0667 111° Southeast 160 184 7,000  Level Anchorage Center
10:45PM 65.0000 -149.9500 90° East 170 196 7,000  Level Anchorage Center
10:46PM 64.9833 -149.8500 111° Southeast 170 196 7,000  Level Anchorage Center
10:47PM 64.9833 -149.7333 90° East 160 184 7,000  Level Anchorage Center
10:48PM 64.9667 -149.6333 111° Southeast 170 196 7,000  Level Anchorage Center
10:49PM 64.9667 -149.5333 90° East 160 184 7,000  Level Anchorage Center
10:50PM 64.9500 -149.4167 109° East 160 184 7,000  Level Anchorage Center
10:52PM 64.9367 -149.2540 101° East  Level FlightAware Approximate
10:59PM 64.8670 -148.5359 108° East  Level FlightAware Approximate
11:00PM 64.8580 -148.4327 101° East  Level FlightAware Approximate
11:01PM 64.8490 -148.3295 102° East  Level FlightAware Approximate
11:02PM 64.8399 -148.2263 102° East  Level FlightAware Approximate
11:03PM 64.8307 -148.1232 102° East  Level FlightAware Approximate
11:04PM 64.8215 -148.0202 102° East  Level FlightAware Approximate
11:05PM 64.8098 -147.9188 109° East  Level FlightAware Approximate
11:06PM 64.8000 -147.8500 109° East  Level FlightAware Approximate
11:07PM 64.8151 -147.8564 North  Level Estimated
11:08PM 64.8151 -147.8564 109° East  Level Estimated
11:09PM 64.8151 -147.8564 170° South  Level Estimated
11:10PM 64.8151 -147.8564 109° East  Level Estimated
11:11PM 64.8151 -147.8564 170° South  Level Estimated
11:12PM 64.8151 -147.8564 109° East  Level Estimated
11:13PM 64.8151 -147.8564 170° South  Level Estimated
11:14PM 64.8151 -147.8564 109° East  Level Estimated
11:15PM 64.8151 -147.8564 170° South  Level Estimated
11:16PM 64.8151 -147.8564 109° East  Level Estimated
11:17PM 64.8151 -147.8564 170° South  Level Estimated
11:18PM 64.8151 -147.8564 109° East  Level Estimated